Time;durP1;ratioP1;P1;durP2;ratioP2;P2;SDS_P1;SDS_P2;PMS_P1;PMS_P2;Temp;Humidity;BMP_temperature;BMP_pressure;BME280_temperature;BME280_humidity;BME280_pressure;Samples;Min_cycle;Max_cycle;Signal;HPM_P1;HPM_P2
2022/03/06 00:01:29;;;;;;;10.95;9.02;;;6.10;41.10;;;-142.21;47.48;112049.66;5074512;28;20247;-78
2022/03/06 00:03:57;;;;;;;11.93;9.13;;;6.10;41.50;;;-142.21;49.09;112049.66;5073809;28;20233;-77
2022/03/06 00:06:31;;;;;;;11.93;9.73;;;6.00;41.90;;;-142.21;49.29;112049.66;5074923;28;20485;-74
2022/03/06 00:08:58;;;;;;;12.60;10.02;;;6.10;41.70;;;-142.21;47.96;112049.66;5072765;28;20836;-77
2022/03/06 00:11:25;;;;;;;12.45;9.70;;;6.10;41.30;;;-142.21;48.90;112049.66;5073527;28;20228;-80
2022/03/06 00:13:53;;;;;;;12.95;9.68;;;6.10;41.20;;;-142.21;48.71;112049.66;5082087;28;20204;-77
2022/03/06 00:16:26;;;;;;;12.90;10.00;;;6.10;41.60;;;-142.21;49.63;112049.66;5076345;28;20240;-77
2022/03/06 00:18:53;;;;;;;12.48;9.48;;;5.90;41.90;;;-142.21;48.98;112049.66;5073000;28;20220;-78
2022/03/06 00:21:22;;;;;;;11.95;9.85;;;5.90;41.80;;;-142.21;49.30;112049.66;5073885;28;20237;-77
2022/03/06 00:23:50;;;;;;;10.95;9.52;;;6.00;41.50;;;-142.21;48.90;112049.66;5072979;28;20205;-77
2022/03/06 00:26:17;;;;;;;11.80;9.80;;;6.00;41.30;;;-142.21;49.25;112049.66;5073716;28;20300;-78
2022/03/06 00:28:44;;;;;;;12.45;9.80;;;6.00;41.30;;;-142.21;50.30;112049.66;5073549;28;20684;-76
2022/03/06 00:31:13;;;;;;;14.30;9.88;;;5.90;41.70;;;-142.21;50.79;112049.66;5072046;28;20289;-78
2022/03/06 00:33:40;;;;;;;12.45;9.45;;;5.90;41.80;;;-142.21;50.96;112049.66;5072953;28;20515;-79
2022/03/06 00:36:07;;;;;;;15.00;10.45;;;5.90;41.60;;;-142.21;51.41;112049.66;5072627;28;20229;-77
2022/03/06 00:38:36;;;;;;;12.32;10.05;;;5.90;42.10;;;-142.21;51.20;112049.66;5073075;28;20232;-76
2022/03/06 00:41:03;;;;;;;13.85;10.07;;;5.90;42.00;;;-142.21;50.94;112049.66;5072947;28;20300;-79
2022/03/06 00:43:30;;;;;;;11.80;8.95;;;5.80;42.10;;;-142.21;52.32;112049.66;5073351;28;20197;-80
2022/03/06 00:45:58;;;;;;;13.30;9.38;;;5.70;42.50;;;-142.21;52.42;112049.66;5073512;28;20201;-76
2022/03/06 00:48:25;;;;;;;11.93;8.50;;;5.70;42.40;;;-142.21;54.05;112049.66;5072876;28;20538;-78
2022/03/06 00:50:52;;;;;;;12.95;10.07;;;5.70;42.70;;;-142.21;55.96;112049.66;5073452;28;20241;-81
2022/03/06 00:53:20;;;;;;;13.95;9.80;;;5.70;42.80;;;-142.21;55.28;112049.66;5072291;28;20289;-78
2022/03/06 00:55:49;;;;;;;12.27;9.80;;;5.60;42.70;;;-142.21;55.75;112049.66;5073082;28;20202;-79
2022/03/06 00:58:17;;;;;;;13.18;9.70;;;5.50;42.90;;;-142.21;55.54;112049.66;5072539;28;20240;-81
2022/03/06 01:00:47;;;;;;;14.65;10.55;;;5.50;43.10;;;-142.21;55.09;112049.66;5072731;28;20204;-80
2022/03/06 01:03:18;;;;;;;13.05;9.82;;;5.60;43.30;;;-142.21;54.88;112049.66;5072876;28;20193;-81
2022/03/06 01:05:47;;;;;;;15.80;11.00;;;5.50;43.10;;;-142.21;56.94;112049.66;5072587;28;20239;-80
2022/03/06 01:08:15;;;;;;;14.13;10.13;;;5.50;43.20;;;-142.21;55.40;112049.66;5073327;28;20481;-80
2022/03/06 01:10:46;;;;;;;15.30;10.88;;;5.40;43.10;;;-142.21;56.34;112049.66;5079294;28;20259;-81
2022/03/06 01:13:16;;;;;;;15.60;11.10;;;5.40;43.50;;;-142.21;55.80;112049.66;5071886;28;20725;-81
2022/03/06 01:15:43;;;;;;;14.00;10.43;;;5.40;43.10;;;-142.21;55.54;112049.66;5071885;28;20224;-79
2022/03/06 01:18:11;;;;;;;13.75;10.15;;;5.40;42.70;;;-142.21;56.14;112049.66;5081381;28;20201;-80
2022/03/06 01:20:41;;;;;;;13.98;11.07;;;5.40;42.60;;;-142.21;56.10;112049.66;5092772;28;20600;-80
2022/03/06 01:23:10;;;;;;;12.80;10.25;;;5.40;43.10;;;-142.21;55.60;112049.66;5052750;28;20291;-76
2022/03/06 01:25:38;;;;;;;13.60;11.10;;;5.40;42.80;;;-142.21;56.09;112049.66;5051898;28;20232;-77
2022/03/06 01:28:06;;;;;;;13.10;10.32;;;5.40;42.60;;;-142.21;56.76;112049.66;5052884;28;20257;-79
2022/03/06 01:30:35;;;;;;;14.98;11.13;;;5.30;42.70;;;-142.21;56.68;112049.66;5052033;28;20281;-80
2022/03/06 01:33:02;;;;;;;14.75;10.68;;;5.40;43.10;;;-142.21;57.62;112049.66;5052604;28;20603;-78
2022/03/06 01:35:30;;;;;;;14.68;11.18;;;5.30;43.20;;;-142.21;56.23;112049.66;5061171;28;20738;-78
2022/03/06 01:37:57;;;;;;;12.65;9.98;;;5.30;43.40;;;-142.21;57.66;112049.66;5074276;28;20672;-80
2022/03/06 01:40:24;;;;;;;15.70;11.07;;;5.10;44.00;;;-142.21;58.02;112049.66;5086710;28;20201;-79
2022/03/06 01:42:52;;;;;;;15.18;10.75;;;5.10;43.90;;;-142.21;60.10;112049.66;5071903;28;20272;-80
2022/03/06 01:45:23;;;;;;;14.45;11.70;;;5.10;44.30;;;-142.21;59.40;112049.66;5072449;28;20200;-78
2022/03/06 01:47:54;;;;;;;14.30;11.45;;;5.10;44.40;;;-142.21;59.12;112049.66;5072001;28;20259;-80
2022/03/06 01:50:25;;;;;;;13.40;11.00;;;5.10;44.20;;;-142.21;58.46;112049.66;5072436;28;20233;-82
2022/03/06 01:52:55;;;;;;;15.68;10.95;;;5.10;43.90;;;-142.21;58.86;112049.66;5071824;28;20244;-80
2022/03/06 01:55:25;;;;;;;15.10;11.43;;;5.10;44.10;;;-142.21;60.90;112049.66;5072513;28;20604;-79
2022/03/06 01:57:56;;;;;;;17.88;10.60;;;5.10;44.30;;;-142.21;58.97;112049.66;5072411;28;20254;-80
2022/03/06 02:00:26;;;;;;;15.13;11.18;;;5.10;44.30;;;-142.21;57.77;112049.66;5072213;28;20201;-78
2022/03/06 02:02:55;;;;;;;15.57;11.27;;;5.00;43.80;;;-142.21;57.54;112049.66;5081677;28;20200;-79
2022/03/06 02:05:23;;;;;;;15.13;11.18;;;5.20;44.30;;;-142.21;58.80;112049.66;5062915;28;20205;-79
2022/03/06 02:07:51;;;;;;;16.58;11.20;;;5.00;44.00;;;-142.21;57.57;112049.66;5069721;28;20236;-78
2022/03/06 02:10:18;;;;;;;15.10;11.32;;;5.00;43.90;;;-142.21;57.33;112049.66;5071768;28;20197;-76
2022/03/06 02:12:46;;;;;;;15.50;10.75;;;5.00;44.00;;;-142.21;58.49;112049.66;5071961;28;20225;-81
2022/03/06 02:15:17;;;;;;;14.68;11.20;;;4.90;44.10;;;-142.21;58.54;112049.66;5071451;28;20225;-82
2022/03/06 02:17:45;;;;;;;14.20;10.80;;;4.90;44.20;;;-142.21;58.47;112049.66;5071959;28;20181;-80
2022/03/06 02:20:16;;;;;;;12.82;10.43;;;5.00;44.30;;;-142.21;58.95;112049.66;5072000;28;20240;-79
2022/03/06 02:22:47;;;;;;;13.25;10.60;;;4.90;44.30;;;-142.21;57.74;112049.66;5072239;28;20189;-79
2022/03/06 02:25:19;;;;;;;15.82;11.73;;;4.90;44.10;;;-142.21;58.35;112049.66;5072836;28;20225;-82
2022/03/06 02:27:48;;;;;;;14.43;10.55;;;5.00;44.30;;;-142.21;57.57;112049.66;5072199;28;20626;-80
2022/03/06 02:30:18;;;;;;;12.88;10.48;;;4.90;44.20;;;-142.21;57.25;112049.66;5072470;28;20213;-79
2022/03/06 02:32:48;;;;;;;12.43;10.20;;;5.10;44.30;;;-142.21;57.09;112049.66;5071431;28;20292;-79
2022/03/06 02:35:16;;;;;;;15.15;10.82;;;5.00;44.80;;;-142.21;57.94;112049.66;5071927;28;20221;-81
2022/03/06 02:37:46;;;;;;;14.27;10.75;;;4.90;44.40;;;-142.21;57.18;112049.66;5053405;28;20570;-81
2022/03/06 02:40:15;;;;;;;14.60;11.18;;;4.90;44.20;;;-142.21;58.37;112049.66;5071932;28;20235;-77
2022/03/06 02:43:22;;;;;;;13.73;10.30;;;4.90;45.00;;;-142.21;58.00;112049.66;5072706;28;20216;-81
2022/03/06 02:45:50;;;;;;;13.40;10.00;;;4.90;45.10;;;-142.21;58.29;112049.66;5092689;28;20203;-82
2022/03/06 02:48:17;;;;;;;14.55;10.68;;;4.80;44.10;;;-142.21;59.88;112049.66;5095793;28;20197;-82
2022/03/06 02:50:45;;;;;;;15.35;10.05;;;5.00;44.50;;;-142.21;58.70;112049.66;5095251;28;20211;-78
2022/03/06 02:53:14;;;;;;;13.20;10.00;;;4.90;44.20;;;-142.21;58.97;112049.66;5095560;28;20260;-80
2022/03/06 02:55:42;;;;;;;14.65;10.73;;;4.90;44.20;;;-142.21;59.07;112049.66;5078579;28;20225;-79
2022/03/06 02:58:10;;;;;;;16.95;10.43;;;4.80;44.70;;;-142.21;58.68;112049.66;5075401;28;20561;-80
2022/03/06 03:00:38;;;;;;;14.85;10.75;;;4.80;44.50;;;-142.21;58.14;112049.66;5074828;28;20301;-80
2022/03/06 03:03:05;;;;;;;15.85;10.73;;;4.90;43.90;;;-142.21;59.67;112049.66;5092040;28;20204;-81
2022/03/06 03:06:30;;;;;;;13.45;10.00;;;4.80;44.10;;;-142.21;58.26;112049.66;5095432;28;20200;-79
2022/03/06 03:11:44;;;;;;;11.98;9.88;;;4.70;44.70;;;-142.21;57.90;112049.66;5074481;28;20229;-81
2022/03/06 03:14:11;;;;;;;12.85;10.00;;;4.60;44.50;;;-142.21;58.42;112049.66;5074617;28;20613;-79
2022/03/06 03:16:39;;;;;;;12.57;9.98;;;4.60;44.40;;;-142.21;59.11;112049.66;5075129;28;20703;-81
2022/03/06 03:19:06;;;;;;;12.88;9.75;;;4.60;44.60;;;-142.21;59.65;112049.66;5074787;28;20665;-81
2022/03/06 03:21:33;;;;;;;13.65;10.35;;;4.50;45.80;;;-142.21;60.69;112049.66;5075474;28;20251;-80
2022/03/06 03:24:02;;;;;;;13.73;10.63;;;4.50;45.00;;;-142.21;61.04;112049.66;5074597;28;20280;-76
2022/03/06 03:26:30;;;;;;;12.48;10.10;;;4.50;44.90;;;-142.21;60.99;112049.66;5076197;28;20712;-80
2022/03/06 03:28:57;;;;;;;13.90;9.98;;;4.50;44.80;;;-142.21;63.08;112049.66;5079126;28;20213;-77
2022/03/06 03:31:24;;;;;;;14.10;10.27;;;4.40;45.20;;;-142.21;64.55;112049.66;5078165;28;20692;-80
2022/03/06 03:33:51;;;;;;;13.15;9.10;;;4.40;45.20;;;-142.21;63.62;112049.66;5074771;28;20254;-82
2022/03/06 03:36:19;;;;;;;14.50;10.93;;;4.50;45.30;;;-142.21;64.81;112049.66;5074095;28;20685;-81
2022/03/06 03:38:46;;;;;;;14.10;9.75;;;4.50;45.70;;;-142.21;63.15;112049.66;5074453;28;20241;-81
2022/03/06 03:41:14;;;;;;;14.25;10.18;;;4.50;45.30;;;-142.21;63.38;112049.66;5073756;28;20240;-76
2022/03/06 03:43:42;;;;;;;14.73;10.15;;;4.50;45.00;;;-142.21;66.32;112049.66;5074100;28;20240;-79
2022/03/06 03:46:09;;;;;;;13.18;9.77;;;4.50;46.00;;;-142.21;63.87;112049.66;5075155;28;20289;-79
2022/03/06 03:48:36;;;;;;;15.57;10.13;;;4.50;45.30;;;-142.21;63.39;112049.66;5073907;28;20259;-80
2022/03/06 03:51:04;;;;;;;15.98;10.50;;;4.50;45.10;;;-142.21;63.43;112049.66;5054293;28;20194;-79
2022/03/06 03:53:31;;;;;;;14.52;10.25;;;4.50;45.40;;;-142.21;61.87;112049.66;5053037;28;20245;-80
2022/03/06 03:55:59;;;;;;;12.10;9.18;;;4.50;45.00;;;-142.21;62.16;112049.66;5054564;28;20652;-80
2022/03/06 03:58:28;;;;;;;12.57;9.48;;;4.50;45.00;;;-142.21;62.88;112049.66;5053886;28;20544;-81
2022/03/06 04:00:55;;;;;;;12.95;10.15;;;4.50;45.20;;;-142.21;63.39;112049.66;5054169;28;20245;-80
2022/03/06 04:03:23;;;;;;;13.07;9.65;;;4.50;45.40;;;-142.21;63.04;112049.66;5054213;28;20602;-80
2022/03/06 04:05:51;;;;;;;14.50;10.23;;;4.50;45.40;;;-142.21;63.09;112049.66;5053312;28;20292;-80
2022/03/06 04:08:21;;;;;;;14.52;10.32;;;4.50;45.60;;;-142.21;65.72;112049.66;5056056;28;20210;-79
2022/03/06 04:10:49;;;;;;;13.77;9.95;;;4.40;45.90;;;-142.21;67.76;112049.66;5062251;28;20202;-81
2022/03/06 04:13:22;;;;;;;12.25;9.85;;;4.30;46.20;;;-142.21;67.66;112049.66;5058808;28;20255;-80
2022/03/06 04:15:50;;;;;;;13.55;10.07;;;4.30;46.30;;;-142.21;68.85;112049.66;5073627;28;20229;-79
2022/03/06 04:18:18;;;;;;;13.63;9.95;;;4.30;46.60;;;-142.21;70.78;112049.66;5073773;28;20209;-80
2022/03/06 04:20:46;;;;;;;13.05;10.38;;;4.30;46.80;;;-142.21;70.35;112049.66;5073236;28;20205;-78
2022/03/06 04:23:13;;;;;;;12.85;9.95;;;4.40;46.70;;;-142.21;68.88;112049.66;5074300;28;20233;-80
2022/03/06 04:25:40;;;;;;;13.30;9.20;;;4.30;46.40;;;-142.21;67.12;112049.66;5073618;28;20258;-81
2022/03/06 04:28:08;;;;;;;11.77;9.52;;;4.30;45.80;;;-142.21;67.24;112049.66;5073075;28;20237;-81
2022/03/06 04:30:36;;;;;;;12.65;10.23;;;4.30;46.00;;;-142.21;68.61;112049.66;5073570;28;20232;-80
2022/03/06 04:33:05;;;;;;;13.80;9.90;;;4.20;46.10;;;-142.21;67.65;112049.66;5073352;28;20296;-80
2022/03/06 04:35:32;;;;;;;12.90;9.73;;;4.20;46.30;;;-142.21;67.18;112049.66;5073371;28;20252;-79
2022/03/06 04:38:05;;;;;;;12.43;9.23;;;4.20;46.30;;;-142.21;68.45;112049.66;5073319;28;20288;-82
2022/03/06 04:40:39;;;;;;;12.57;9.10;;;4.10;46.40;;;-142.21;68.53;112049.66;5072662;28;20228;-79
2022/03/06 04:43:06;;;;;;;13.32;10.05;;;4.10;46.30;;;-142.21;68.97;112049.66;5073101;28;20201;-79
2022/03/06 04:45:33;;;;;;;12.52;9.30;;;4.10;46.30;;;-142.21;68.38;112049.66;5073529;28;20233;-82
2022/03/06 04:48:01;;;;;;;13.10;10.20;;;4.10;45.90;;;-142.21;67.80;112049.66;5072849;28;20284;-81
2022/03/06 04:50:29;;;;;;;12.38;9.38;;;4.00;46.30;;;-142.21;68.30;112049.66;5073545;28;20347;-79
2022/03/06 04:52:58;;;;;;;12.63;9.38;;;4.00;46.30;;;-142.21;67.22;112049.66;5073802;28;20259;-78
2022/03/06 04:55:31;;;;;;;13.13;9.32;;;4.00;46.70;;;-142.21;68.79;112049.66;5073104;28;20209;-81
2022/03/06 04:57:58;;;;;;;13.90;9.48;;;4.00;46.60;;;-142.21;69.09;112049.66;5079974;28;20656;-82
2022/03/06 05:00:26;;;;;;;11.70;8.85;;;3.90;46.70;;;-142.21;68.52;112049.66;5084937;28;20565;-81
2022/03/06 05:02:59;;;;;;;12.35;9.68;;;4.00;46.90;;;-142.21;67.71;112049.66;5071311;28;20256;-81
2022/03/06 05:05:27;;;;;;;12.77;9.95;;;3.90;46.60;;;-142.21;68.27;112049.66;5071861;28;20193;-79
2022/03/06 05:07:55;;;;;;;12.70;8.77;;;3.80;47.00;;;-142.21;68.60;112049.66;5073009;28;20267;-79
2022/03/06 05:10:23;;;;;;;13.23;9.32;;;3.80;47.00;;;-142.21;70.28;112049.66;5072738;28;20665;-79
2022/03/06 05:12:50;;;;;;;11.07;9.02;;;3.80;47.30;;;-142.21;69.89;112049.66;5072684;28;20256;-80
2022/03/06 05:15:17;;;;;;;13.15;9.57;;;3.80;47.20;;;-142.21;69.79;112049.66;5072350;28;20213;-79
2022/03/06 05:17:44;;;;;;;12.73;9.30;;;3.80;47.20;;;-142.21;70.56;112049.66;5072391;28;20240;-80
2022/03/06 05:20:14;;;;;;;13.10;9.35;;;3.80;47.30;;;-142.21;69.84;112049.66;5072531;28;20291;-78
2022/03/06 05:22:41;;;;;;;11.50;9.23;;;3.80;47.20;;;-142.21;69.96;112049.66;5072205;28;20201;-80
2022/03/06 05:25:11;;;;;;;13.27;9.98;;;3.80;46.80;;;-142.21;70.17;112049.66;5072931;28;20600;-79
2022/03/06 05:27:39;;;;;;;11.82;8.77;;;3.80;47.00;;;-142.21;69.72;112049.66;5071986;28;20228;-79
2022/03/06 05:30:14;;;;;;;11.88;9.23;;;3.80;47.10;;;-142.21;70.09;112049.66;5076127;28;20616;-81
2022/03/06 05:32:47;;;;;;;12.43;9.10;;;3.80;47.30;;;-142.21;70.27;112049.66;5069385;28;20613;-80
2022/03/06 05:35:15;;;;;;;12.15;9.07;;;3.80;47.90;;;-142.21;70.52;112049.66;5072424;28;20291;-81
2022/03/06 05:37:42;;;;;;;12.63;9.65;;;3.70;47.30;;;-142.21;71.51;112049.66;5071813;28;20267;-80
2022/03/06 05:40:11;;;;;;;12.95;9.52;;;3.70;47.10;;;-142.21;73.59;112049.66;5072271;28;20205;-80
2022/03/06 05:42:38;;;;;;;11.63;9.00;;;3.80;47.90;;;-142.21;73.76;112049.66;5051856;28;20293;-80
2022/03/06 05:45:07;;;;;;;13.68;9.10;;;3.80;48.30;;;-142.21;75.22;112049.66;5070259;28;20199;-80
2022/03/06 05:47:34;;;;;;;11.07;8.93;;;3.80;48.50;;;-142.21;73.67;112049.66;5092914;28;20247;-81
2022/03/06 05:50:02;;;;;;;14.98;9.32;;;4.00;47.90;;;-142.21;73.92;112049.66;5052096;28;20232;-80
2022/03/06 05:52:29;;;;;;;11.55;8.95;;;3.80;47.90;;;-142.21;73.20;112049.66;5072579;28;20205;-80
2022/03/06 05:54:56;;;;;;;13.38;9.25;;;3.90;47.80;;;-142.21;73.31;112049.66;5071417;28;20283;-80
2022/03/06 05:57:25;;;;;;;12.20;9.15;;;4.00;47.70;;;-142.21;74.09;112049.66;5072052;28;20294;-81
2022/03/06 05:59:52;;;;;;;11.90;9.20;;;3.90;48.30;;;-142.21;74.71;112049.66;5071572;28;20617;-81
2022/03/06 06:02:20;;;;;;;13.88;9.68;;;4.00;48.40;;;-142.21;75.32;112049.66;5072147;28;20739;-80
2022/03/06 06:04:47;;;;;;;12.32;9.32;;;4.00;48.40;;;-142.21;74.12;112049.66;5070241;28;20217;-78
2022/03/06 06:07:14;;;;;;;12.65;9.43;;;4.10;48.00;;;-142.21;73.38;112049.66;5083070;28;20200;-80
2022/03/06 06:09:42;;;;;;;13.45;9.20;;;4.20;48.60;;;-142.21;75.20;112049.66;5092007;28;20291;-80
2022/03/06 06:12:16;;;;;;;13.20;9.25;;;4.20;48.10;;;-142.21;75.34;112049.66;5088886;28;20240;-79
2022/03/06 06:14:44;;;;;;;12.32;9.20;;;4.30;48.20;;;-142.21;75.41;112049.66;5080318;28;20672;-81
2022/03/06 06:17:11;;;;;;;14.00;9.82;;;4.30;48.50;;;-142.21;74.87;112049.66;5081144;28;20278;-79
2022/03/06 06:19:44;;;;;;;13.02;9.57;;;4.40;48.60;;;-142.21;74.53;112049.66;5075378;28;20232;-80
2022/03/06 06:22:12;;;;;;;14.70;9.52;;;4.40;48.40;;;-142.21;75.39;112049.66;5075689;28;20182;-79
2022/03/06 06:24:40;;;;;;;12.57;9.10;;;4.50;48.60;;;-142.21;74.89;112049.66;5075905;28;20538;-80
2022/03/06 06:27:07;;;;;;;11.82;8.95;;;4.50;48.30;;;-142.21;74.96;112049.66;5075518;28;20225;-80
2022/03/06 06:29:34;;;;;;;12.70;9.32;;;4.60;48.60;;;-142.21;76.95;112049.66;5075922;28;20317;-78
2022/03/06 06:32:04;;;;;;;13.57;10.13;;;4.60;49.10;;;-142.21;75.86;112049.66;5075941;28;20237;-78
2022/03/06 06:34:31;;;;;;;11.60;9.82;;;4.60;48.80;;;-142.21;77.77;112049.66;5072287;28;20229;-81
2022/03/06 06:36:58;;;;;;;11.38;8.98;;;4.70;48.90;;;-142.21;77.79;112049.66;5056056;28;20314;-78
2022/03/06 06:39:26;;;;;;;11.63;9.77;;;4.90;49.20;;;-142.21;77.02;112049.66;5055042;28;20280;-80
2022/03/06 06:41:53;;;;;;;12.75;10.07;;;4.90;49.00;;;-142.21;77.22;112049.66;5055786;28;20198;-81
2022/03/06 06:44:21;;;;;;;12.18;9.40;;;4.90;49.00;;;-142.21;77.96;112049.66;5055078;28;20202;-78
2022/03/06 06:46:48;;;;;;;12.07;9.60;;;5.00;48.80;;;-142.21;75.57;112049.66;5056004;28;20194;-79
2022/03/06 06:49:17;;;;;;;11.85;9.02;;;5.00;48.60;;;-142.21;75.88;112049.66;5056031;28;20626;-80
2022/03/06 06:51:44;;;;;;;11.68;9.15;;;5.10;48.50;;;-142.21;76.56;112049.66;5055151;28;20205;-77
2022/03/06 06:54:13;;;;;;;12.95;9.68;;;5.20;48.50;;;-142.21;74.66;112049.66;5060201;28;20331;-79
2022/03/06 06:56:40;;;;;;;11.45;9.63;;;5.30;48.40;;;-142.21;76.50;112049.66;5075152;28;20247;-77
2022/03/06 06:59:08;;;;;;;13.90;9.35;;;5.40;48.40;;;-142.21;78.54;112049.66;5075312;28;20236;-75
2022/03/06 07:01:41;;;;;;;10.93;9.20;;;5.40;48.70;;;-142.21;78.41;112049.66;5075493;28;20197;-79
2022/03/06 07:04:14;;;;;;;11.52;9.02;;;5.50;48.70;;;-142.21;78.04;112049.66;5075069;28;20229;-77
2022/03/06 07:06:44;;;;;;;11.48;9.73;;;5.70;48.70;;;-142.21;77.86;112049.66;5075067;28;20189;-79
2022/03/06 07:09:12;;;;;;;13.07;9.43;;;5.80;48.40;;;-142.21;75.88;112049.66;5075612;28;20205;-79
2022/03/06 07:11:39;;;;;;;12.38;9.57;;;5.90;48.20;;;-142.21;75.79;112049.66;5075675;28;20227;-78
2022/03/06 07:14:06;;;;;;;11.13;9.32;;;6.00;48.20;;;-142.21;75.18;112049.66;5075975;28;20725;-77
2022/03/06 07:16:33;;;;;;;10.63;8.77;;;6.10;48.20;;;-142.21;74.75;112049.66;5077169;28;20225;-81
2022/03/06 07:19:01;;;;;;;12.38;9.35;;;6.50;48.00;;;-142.21;76.34;112049.66;5074077;28;20198;-77
2022/03/06 07:21:28;;;;;;;11.97;9.20;;;6.90;47.50;;;-142.21;75.83;112049.66;5054787;28;20194;-74
2022/03/06 07:23:57;;;;;;;12.80;9.40;;;7.00;47.50;;;-142.21;75.09;112049.66;5054511;28;20476;-77
2022/03/06 07:26:24;;;;;;;12.03;9.97;;;7.20;46.90;;;-142.21;74.68;112049.66;5055075;28;20522;-77
2022/03/06 07:28:51;;;;;;;11.93;10.27;;;7.40;46.70;;;-142.21;72.70;112049.66;5053934;28;20452;-76
2022/03/06 07:31:20;;;;;;;11.43;9.50;;;7.40;46.00;;;-142.21;70.17;112049.66;5068058;28;20475;-77
2022/03/06 07:33:47;;;;;;;12.73;9.37;;;7.60;46.00;;;-142.21;69.37;112049.66;5074694;28;20509;-78
2022/03/06 07:36:15;;;;;;;11.13;9.23;;;7.90;45.40;;;-142.21;66.91;112049.66;5081163;28;20451;-76
2022/03/06 07:38:48;;;;;;;11.67;9.43;;;8.30;45.30;;;-142.21;66.82;112049.66;5075563;28;20444;-77
2022/03/06 07:41:17;;;;;;;12.03;10.03;;;9.60;44.20;;;-142.21;65.64;112049.66;5083633;28;20448;-79
2022/03/06 07:43:44;;;;;;;10.80;9.70;;;9.60;42.90;;;-142.21;66.89;112049.66;5076341;28;20447;-78
2022/03/06 07:46:11;;;;;;;12.03;10.43;;;9.30;43.50;;;-142.21;65.22;112049.66;5074729;28;20491;-77
2022/03/06 07:48:39;;;;;;;14.30;9.83;;;9.00;43.50;;;-142.21;66.06;112049.66;5073911;28;20501;-78
2022/03/06 07:51:06;;;;;;;13.00;9.97;;;8.80;43.90;;;-142.21;63.22;112049.66;5073535;28;20868;-79
2022/03/06 07:53:34;;;;;;;12.17;10.57;;;8.60;44.00;;;-142.21;63.04;112049.66;5078811;28;20565;-79
2022/03/06 07:56:01;;;;;;;12.00;10.57;;;8.40;44.00;;;-142.21;62.40;112049.66;5080196;28;20802;-78
2022/03/06 07:58:30;;;;;;;11.77;10.00;;;8.50;44.80;;;-142.21;62.83;112049.66;5074825;28;20507;-79
2022/03/06 08:00:57;;;;;;;11.37;9.67;;;9.20;44.40;;;-142.21;63.04;112049.66;5073667;28;20517;-79
2022/03/06 08:03:24;;;;;;;13.37;10.80;;;10.00;42.40;;;-142.21;62.95;112049.66;5080057;28;20451;-79
2022/03/06 08:05:52;;;;;;;11.93;10.13;;;9.90;42.80;;;-142.21;61.54;112049.66;5073750;28;20474;-78
2022/03/06 08:08:19;;;;;;;11.83;9.70;;;9.70;42.90;;;-142.21;60.70;112049.66;5090846;28;20485;-78
2022/03/06 08:10:46;;;;;;;12.53;10.53;;;9.50;42.80;;;-142.21;58.97;112049.66;5078064;28;20476;-78
2022/03/06 08:13:14;;;;;;;12.17;10.00;;;9.30;42.50;;;-142.21;57.69;112049.66;5074284;28;20521;-78
2022/03/06 08:15:43;;;;;;;11.77;10.07;;;9.20;42.90;;;-142.21;57.26;112049.66;5074542;28;20481;-78
2022/03/06 08:18:10;;;;;;;12.53;10.50;;;9.00;42.70;;;-142.21;57.39;112049.66;5074837;28;20483;-78
2022/03/06 08:20:38;;;;;;;12.00;10.47;;;9.00;43.10;;;-142.21;56.43;112049.66;5076586;28;20509;-79
2022/03/06 08:23:06;;;;;;;12.37;10.50;;;9.00;43.10;;;-142.21;56.87;112049.66;5073521;28;20456;-79
2022/03/06 08:25:33;;;;;;;11.60;10.40;;;8.90;43.00;;;-142.21;55.87;112049.66;5072501;28;20439;-79
2022/03/06 08:28:01;;;;;;;12.47;10.10;;;9.00;43.30;;;-142.21;56.01;112049.66;5073782;28;20443;-78
2022/03/06 08:30:28;;;;;;;10.90;9.67;;;9.00;43.00;;;-142.21;58.43;112049.66;5076241;28;20455;-78
2022/03/06 08:32:57;;;;;;;12.33;10.00;;;9.20;43.50;;;-142.21;55.50;112049.66;5073069;28;20482;-78
2022/03/06 08:35:25;;;;;;;11.40;10.20;;;9.30;42.60;;;-142.21;56.29;112049.66;5072127;28;20482;-77
2022/03/06 08:37:52;;;;;;;11.43;9.97;;;9.30;43.00;;;-142.21;54.95;112049.66;5073502;28;20483;-78
2022/03/06 08:40:19;;;;;;;13.00;10.47;;;9.20;42.50;;;-142.21;53.98;112049.66;5073848;28;20962;-79
2022/03/06 08:42:47;;;;;;;11.73;10.03;;;9.20;42.60;;;-142.21;55.00;112049.66;5072124;28;20639;-76
2022/03/06 08:45:14;;;;;;;12.63;10.43;;;9.30;42.70;;;-142.21;53.92;112049.66;5081378;28;20455;-78
2022/03/06 08:47:42;;;;;;;11.07;9.80;;;9.20;43.00;;;-142.21;53.32;112049.66;5073604;28;20502;-77
2022/03/06 08:50:11;;;;;;;11.77;10.30;;;9.30;42.80;;;-142.21;52.46;112049.66;5084058;28;20478;-76
2022/03/06 08:52:38;;;;;;;12.23;10.90;;;9.30;42.50;;;-142.21;50.94;112049.66;5073001;28;20493;-77
2022/03/06 08:55:08;;;;;;;11.23;10.03;;;9.40;42.40;;;-142.21;51.42;112049.66;5083913;28;20973;-75
2022/03/06 08:57:35;;;;;;;13.00;11.13;;;9.40;42.40;;;-142.21;50.63;112049.66;5075621;28;20564;-77
2022/03/06 09:00:04;;;;;;;11.90;10.27;;;9.50;42.50;;;-142.21;50.39;112049.66;5075447;28;20482;-78
2022/03/06 09:02:32;;;;;;;11.57;10.37;;;9.50;42.00;;;-142.21;48.93;112049.66;5072483;28;20880;-76
2022/03/06 09:04:59;;;;;;;11.77;10.57;;;9.80;41.90;;;-142.21;49.96;112049.66;5079617;28;20440;-77
2022/03/06 09:07:28;;;;;;;12.07;10.70;;;9.80;41.50;;;-142.21;49.02;112049.66;5064863;28;20448;-76
2022/03/06 09:09:55;;;;;;;13.10;10.60;;;10.00;40.50;;;-142.21;47.96;112049.66;5076185;28;20450;-76
2022/03/06 09:12:26;;;;;;;13.63;11.83;;;10.30;40.10;;;-142.21;47.94;112049.66;5078024;28;20462;-75
2022/03/06 09:14:53;;;;;;;12.50;10.73;;;10.70;39.70;;;-142.21;47.57;112049.66;5082878;28;20452;-77
2022/03/06 09:17:21;;;;;;;12.63;11.10;;;11.20;38.80;;;-142.21;46.86;112049.66;5072165;28;20476;-79
2022/03/06 09:19:48;;;;;;;13.47;11.80;;;11.60;37.90;;;-142.21;46.10;112049.66;5072250;28;20448;-77
2022/03/06 09:22:23;;;;;;;12.87;11.53;;;11.90;36.80;;;-142.21;45.15;112049.66;5085742;28;20529;-77
2022/03/06 09:24:52;;;;;;;12.20;11.03;;;12.00;36.10;;;-142.21;45.50;112049.66;5084324;28;20474;-78
2022/03/06 09:27:19;;;;;;;12.10;10.90;;;12.60;36.70;;;-142.21;45.24;112049.66;5077345;28;20447;-78
2022/03/06 09:29:47;;;;;;;12.30;10.37;;;13.50;35.90;;;-142.21;44.47;112049.66;5072136;28;20977;-79
2022/03/06 09:32:14;;;;;;;12.00;10.80;;;14.70;35.20;;;-142.21;43.83;112049.66;5084426;28;20547;-79
2022/03/06 09:34:42;;;;;;;12.87;11.47;;;16.20;34.10;;;-142.21;42.54;112049.66;5072037;28;20201;-78
2022/03/06 09:37:10;;;;;;;13.13;11.93;;;17.00;31.20;;;-142.21;42.59;112049.66;5071824;28;20308;-78
2022/03/06 09:39:37;;;;;;;13.57;12.27;;;17.90;30.80;;;-142.21;41.03;112049.66;5079529;28;20625;-76
2022/03/06 09:42:07;;;;;;;14.10;12.70;;;18.40;29.10;;;-142.21;41.69;112049.66;5073620;28;20618;-79
2022/03/06 09:44:36;;;;;;;12.93;11.73;;;19.00;29.00;;;-142.21;40.71;112049.66;5076166;28;20205;-78
2022/03/06 09:47:07;;;;;;;13.50;12.30;;;19.60;28.10;;;-142.21;39.81;112049.66;5072133;28;20258;-78
2022/03/06 09:49:36;;;;;;;13.43;12.13;;;19.60;26.90;;;-142.21;39.47;112049.66;5072135;28;20223;-78
2022/03/06 09:52:05;;;;;;;12.27;11.07;;;20.00;27.50;;;-142.21;40.03;112049.66;5072026;28;20208;-78
2022/03/06 09:54:34;;;;;;;13.60;12.33;;;20.90;27.80;;;-142.21;39.67;112049.66;5071495;28;20343;-78
2022/03/06 09:57:01;;;;;;;12.60;11.50;;;21.00;26.20;;;-142.21;37.85;112049.66;5071668;28;20240;-78
2022/03/06 09:59:31;;;;;;;12.23;11.13;;;21.40;26.10;;;-142.21;38.64;112049.66;5071417;28;20673;-78
2022/03/06 10:02:01;;;;;;;11.70;10.63;;;21.90;25.90;;;-142.21;37.49;112049.66;5077451;28;20229;-79
2022/03/06 10:04:30;;;;;;;12.10;11.00;;;22.50;25.80;;;-142.21;34.86;112049.66;5091169;28;20204;-77